sensor_id;sensor_type;location;lat;lon;timestamp;pressure;altitude;pressure_sealevel;temperature;humidity
43681;BME280;29281;50.356;30.894;2023-01-15T06:54:29;100753.97;;;0.53;100.00
43681;BME280;29281;50.356;30.894;2023-01-15T06:55:33;100753.38;;;0.38;100.00
43681;BME280;29281;50.356;30.894;2023-01-15T06:56:35;100751.60;;;0.40;100.00
43681;BME280;29281;50.356;30.894;2023-01-15T06:57:39;100749.66;;;0.51;100.00
43681;BME280;29281;50.356;30.894;2023-01-15T06:58:44;100750.54;;;0.50;100.00
43681;BME280;29281;50.356;30.894;2023-01-15T06:59:49;100750.56;;;0.48;100.00
43681;BME280;29281;50.356;30.894;2023-01-15T07:00:53;100749.70;;;0.48;100.00
43681;BME280;29281;50.356;30.894;2023-01-15T07:01:57;100745.49;;;0.41;100.00
43681;BME280;29281;50.356;30.894;2023-01-15T07:03:01;100746.13;;;0.53;100.00
43681;BME280;29281;50.356;30.894;2023-01-15T07:04:05;100749.67;;;0.49;100.00
43681;BME280;29281;50.356;30.894;2023-01-15T07:05:07;100741.71;;;0.57;100.00
43681;BME280;29281;50.356;30.894;2023-01-15T07:06:13;100749.50;;;0.60;100.00
43681;BME280;29281;50.356;30.894;2023-01-15T07:07:17;100744.35;;;0.55;100.00
43681;BME280;29281;50.356;30.894;2023-01-15T07:08:20;100746.15;;;0.52;100.00
43681;BME280;29281;50.356;30.894;2023-01-15T07:09:23;100745.23;;;0.54;100.00
43681;BME280;29281;50.356;30.894;2023-01-15T07:10:27;100740.61;;;0.68;100.00
43681;BME280;29281;50.356;30.894;2023-01-15T07:11:30;100746.63;;;0.74;100.00
43681;BME280;29281;50.356;30.894;2023-01-15T07:12:33;100742.34;;;0.69;100.00
43681;BME280;29281;50.356;30.894;2023-01-15T07:13:40;100751.88;;;0.72;100.00
43681;BME280;29281;50.356;30.894;2023-01-15T07:14:44;100749.11;;;0.80;100.00
43681;BME280;29281;50.356;30.894;2023-01-15T07:15:47;100755.36;;;0.73;100.00
43681;BME280;29281;50.356;30.894;2023-01-15T07:16:50;100753.58;;;0.75;100.00
43681;BME280;29281;50.356;30.894;2023-01-15T07:17:56;100755.36;;;0.73;100.00
43681;BME280;29281;50.356;30.894;2023-01-15T07:19:00;100749.39;;;0.64;100.00
43681;BME280;29281;50.356;30.894;2023-01-15T07:20:05;100747.54;;;0.71;100.00
43681;BME280;29281;50.356;30.894;2023-01-15T07:21:09;100749.16;;;0.77;100.00
43681;BME280;29281;50.356;30.894;2023-01-15T07:22:12;100746.48;;;0.80;100.00
43681;BME280;29281;50.356;30.894;2023-01-15T07:23:15;100734.17;;;0.86;100.00
43681;BME280;29281;50.356;30.894;2023-01-15T07:24:18;100735.87;;;0.89;100.00
43681;BME280;29281;50.356;30.894;2023-01-15T07:25:21;100741.97;;;0.89;100.00
43681;BME280;29281;50.356;30.894;2023-01-15T07:26:26;100741.82;;;0.95;100.00
43681;BME280;29281;50.356;30.894;2023-01-15T07:27:31;100748.94;;;0.89;100.00
43681;BME280;29281;50.356;30.894;2023-01-15T07:28:36;100755.98;;;0.85;100.00
43681;BME280;29281;50.356;30.894;2023-01-15T07:29:39;100747.38;;;0.79;100.00
43681;BME280;29281;50.356;30.894;2023-01-15T07:30:41;100746.38;;;0.86;100.00
43681;BME280;29281;50.356;30.894;2023-01-15T07:31:45;100746.41;;;0.84;100.00
43681;BME280;29281;50.356;30.894;2023-01-15T07:32:49;100738.48;;;0.89;100.00
43681;BME280;29281;50.356;30.894;2023-01-15T07:33:55;100742.68;;;0.96;100.00
43681;BME280;29281;50.356;30.894;2023-01-15T07:34:59;100736.59;;;0.95;100.00
43681;BME280;29281;50.356;30.894;2023-01-15T07:36:05;100741.71;;;1.01;100.00
43681;BME280;29281;50.356;30.894;2023-01-15T07:37:08;100733.06;;;0.98;100.00
43681;BME280;29281;50.356;30.894;2023-01-15T07:38:12;100744.38;;;0.98;100.00
43681;BME280;29281;50.356;30.894;2023-01-15T07:39:16;100739.98;;;1.00;100.00
43681;BME280;29281;50.356;30.894;2023-01-15T07:40:19;100750.45;;;1.00;100.00
43681;BME280;29281;50.356;30.894;2023-01-15T07:41:25;100742.66;;;0.97;100.00
43681;BME280;29281;50.356;30.894;2023-01-15T07:42:50;100747.02;;;0.97;100.00
43681;BME280;29281;50.356;30.894;2023-01-15T07:44:11;100747.94;;;0.94;100.00
43681;BME280;29281;50.356;30.894;2023-01-15T07:45:32;100741.56;;;1.08;100.00
43681;BME280;29281;50.356;30.894;2023-01-15T07:46:56;100746.54;;;1.21;100.00
43681;BME280;29281;50.356;30.894;2023-01-15T07:48:18;100752.00;;;1.09;100.00
43681;BME280;29281;50.356;30.894;2023-01-15T07:49:40;100746.97;;;1.00;100.00
43681;BME280;29281;50.356;30.894;2023-01-15T07:50:54;100738.23;;;1.01;100.00
43681;BME280;29281;50.356;30.894;2023-01-15T07:51:56;100735.73;;;0.95;100.00
43681;BME280;29281;50.356;30.894;2023-01-15T07:53:00;100743.52;;;0.98;100.00
43681;BME280;29281;50.356;30.894;2023-01-15T07:54:02;100735.75;;;0.93;100.00
43681;BME280;29281;50.356;30.894;2023-01-15T07:55:06;100737.14;;;1.11;100.00
43681;BME280;29281;50.356;30.894;2023-01-15T07:56:12;100744.12;;;1.11;100.00
43681;BME280;29281;50.356;30.894;2023-01-15T07:57:18;100744.16;;;1.09;100.00
43681;BME280;29281;50.356;30.894;2023-01-15T07:58:21;100746.80;;;1.08;100.00
43681;BME280;29281;50.356;30.894;2023-01-15T07:59:28;100749.24;;;1.17;100.00
43681;BME280;29281;50.356;30.894;2023-01-15T08:00:30;100749.19;;;1.20;100.00
43681;BME280;29281;50.356;30.894;2023-01-15T08:01:34;100748.38;;;1.16;100.00
43681;BME280;29281;50.356;30.894;2023-01-15T08:02:37;100751.02;;;1.15;100.00
43681;BME280;29281;50.356;30.894;2023-01-15T08:03:41;100747.63;;;1.10;100.00
43681;BME280;29281;50.356;30.894;2023-01-15T08:04:43;100752.75;;;1.16;100.00
43681;BME280;29281;50.356;30.894;2023-01-15T08:05:46;100750.97;;;1.18;100.00
43681;BME280;29281;50.356;30.894;2023-01-15T08:06:50;100748.47;;;1.12;100.00
43681;BME280;29281;50.356;30.894;2023-01-15T08:07:56;100749.36;;;1.11;100.00
43681;BME280;29281;50.356;30.894;2023-01-15T08:09:00;100751.00;;;1.16;100.00
43681;BME280;29281;50.356;30.894;2023-01-15T08:10:05;100753.92;;;1.01;100.00
43681;BME280;29281;50.356;30.894;2023-01-15T08:11:09;100748.61;;;1.05;100.00
43681;BME280;29281;50.356;30.894;2023-01-15T08:12:32;100753.01;;;1.03;100.00
43681;BME280;29281;50.356;30.894;2023-01-15T08:13:55;100759.19;;;0.99;100.00
43681;BME280;29281;50.356;30.894;2023-01-15T08:15:17;100762.58;;;1.04;100.00
43681;BME280;29281;50.356;30.894;2023-01-15T08:16:20;100754.06;;;0.93;100.00
43681;BME280;29281;50.356;30.894;2023-01-15T08:17:23;100748.86;;;0.92;100.00
43681;BME280;29281;50.356;30.894;2023-01-15T08:18:29;100753.92;;;1.01;100.00
43681;BME280;29281;50.356;30.894;2023-01-15T08:19:32;100748.50;;;1.10;100.00
43681;BME280;29281;50.356;30.894;2023-01-15T08:20:37;100747.55;;;1.14;100.00
43681;BME280;29281;50.356;30.894;2023-01-15T08:21:40;100748.55;;;1.07;100.00
43681;BME280;29281;50.356;30.894;2023-01-15T08:22:46;100745.02;;;1.10;100.00
43681;BME280;29281;50.356;30.894;2023-01-15T08:23:49;100744.88;;;1.17;100.00
43681;BME280;29281;50.356;30.894;2023-01-15T08:24:52;100747.72;;;1.07;100.00
43681;BME280;29281;50.356;30.894;2023-01-15T08:25:59;100746.72;;;1.12;100.00
43681;BME280;29281;50.356;30.894;2023-01-15T08:27:03;100753.78;;;1.07;100.00
43681;BME280;29281;50.356;30.894;2023-01-15T08:28:06;100745.24;;;0.99;100.00
43681;BME280;29281;50.356;30.894;2023-01-15T08:29:10;100744.41;;;0.97;100.00
43681;BME280;29281;50.356;30.894;2023-01-15T08:30:20;100746.33;;;0.89;100.00
43681;BME280;29281;50.356;30.894;2023-01-15T08:31:19;100742.71;;;0.94;100.00
43681;BME280;29281;50.356;30.894;2023-01-15T08:32:23;100738.23;;;1.01;100.00
43681;BME280;29281;50.356;30.894;2023-01-15T08:33:27;100739.93;;;1.03;100.00
43681;BME280;29281;50.356;30.894;2023-01-15T08:34:30;100744.38;;;0.98;100.00
43681;BME280;29281;50.356;30.894;2023-01-15T08:35:35;100745.11;;;1.07;100.00
43681;BME280;29281;50.356;30.894;2023-01-15T08:36:39;100751.59;;;0.87;100.00
43681;BME280;29281;50.356;30.894;2023-01-15T08:37:42;100742.88;;;0.87;100.00
43681;BME280;29281;50.356;30.894;2023-01-15T08:38:47;100744.58;;;0.89;100.00
43681;BME280;29281;50.356;30.894;2023-01-15T08:39:54;100745.24;;;0.99;100.00
43681;BME280;29281;50.356;30.894;2023-01-15T08:40:57;100744.44;;;0.95;100.00
43681;BME280;29281;50.356;30.894;2023-01-15T08:42:01;100749.61;;;0.98;100.00
43681;BME280;29281;50.356;30.894;2023-01-15T08:43:05;100742.52;;;1.05;100.00
43681;BME280;29281;50.356;30.894;2023-01-15T08:44:10;100741.63;;;1.06;100.00
43681;BME280;29281;50.356;30.894;2023-01-15T08:45:30;100744.88;;;1.17;100.00
43681;BME280;29281;50.356;30.894;2023-01-15T08:46:33;100743.06;;;1.21;100.00
43681;BME280;29281;50.356;30.894;2023-01-15T08:47:36;100743.86;;;1.23;100.00
43681;BME280;29281;50.356;30.894;2023-01-15T08:48:40;100748.95;;;1.30;100.00
43681;BME280;29281;50.356;30.894;2023-01-15T08:49:42;100740.38;;;1.22;100.00
43681;BME280;29281;50.356;30.894;2023-01-15T08:50:47;100742.23;;;1.19;100.00
43681;BME280;29281;50.356;30.894;2023-01-15T08:51:51;100741.37;;;1.18;100.00
43681;BME280;29281;50.356;30.894;2023-01-15T08:52:54;100736.28;;;1.11;100.00
43681;BME280;29281;50.356;30.894;2023-01-15T08:53:58;100741.31;;;1.21;100.00
43681;BME280;29281;50.356;30.894;2023-01-15T08:55:01;100735.06;;;1.27;100.00
43681;BME280;29281;50.356;30.894;2023-01-15T08:56:18;100732.48;;;1.25;100.00
43681;BME280;29281;50.356;30.894;2023-01-15T08:57:24;100738.78;;;1.17;100.00
43681;BME280;29281;50.356;30.894;2023-01-15T08:58:28;100734.23;;;1.25;100.00
43681;BME280;29281;50.356;30.894;2023-01-15T08:59:32;100735.03;;;1.28;100.00
43681;BME280;29281;50.356;30.894;2023-01-15T09:00:34;100742.08;;;1.25;100.00
43681;BME280;29281;50.356;30.894;2023-01-15T09:01:37;100732.27;;;1.36;100.00
43681;BME280;29281;50.356;30.894;2023-01-15T09:02:43;100727.22;;;1.27;100.00
43681;BME280;29281;50.356;30.894;2023-01-15T09:03:46;100726.32;;;1.28;100.00
43681;BME280;29281;50.356;30.894;2023-01-15T09:04:49;100725.95;;;1.45;100.00
43681;BME280;29281;50.356;30.894;2023-01-15T09:05:59;100721.64;;;1.42;100.00
43681;BME280;29281;50.356;30.894;2023-01-15T09:07:03;100733.28;;;1.29;100.00
43681;BME280;29281;50.356;30.894;2023-01-15T09:08:06;100722.81;;;1.29;100.00
43681;BME280;29281;50.356;30.894;2023-01-15T09:09:10;100726.27;;;1.31;100.00
43681;BME280;29281;50.356;30.894;2023-01-15T09:10:16;100720.91;;;1.37;100.00
43681;BME280;29281;50.356;30.894;2023-01-15T09:11:22;100715.73;;;1.34;100.00
43681;BME280;29281;50.356;30.894;2023-01-15T09:12:25;100710.86;;;1.17;100.00
43681;BME280;29281;50.356;30.894;2023-01-15T09:13:30;100710.69;;;1.25;100.00
43681;BME280;29281;50.356;30.894;2023-01-15T09:14:37;100714.38;;;1.16;100.00
43681;BME280;29281;50.356;30.894;2023-01-15T09:15:42;100708.98;;;1.22;100.00
43681;BME280;29281;50.356;30.894;2023-01-15T09:16:46;100707.20;;;1.24;100.00
43681;BME280;29281;50.356;30.894;2023-01-15T09:17:49;100705.72;;;1.13;100.00
43681;BME280;29281;50.356;30.894;2023-01-15T09:18:55;100706.53;;;1.16;100.00
43681;BME280;29281;50.356;30.894;2023-01-15T09:19:58;100690.49;;;1.31;100.00
43681;BME280;29281;50.356;30.894;2023-01-15T09:21:01;100699.45;;;1.21;100.00
43681;BME280;29281;50.356;30.894;2023-01-15T09:22:05;100700.52;;;1.11;100.00
43681;BME280;29281;50.356;30.894;2023-01-15T09:23:09;100700.70;;;1.03;100.00
43681;BME280;29281;50.356;30.894;2023-01-15T09:24:13;100693.42;;;1.18;100.00
43681;BME280;29281;50.356;30.894;2023-01-15T09:25:18;100690.95;;;1.10;100.00
43681;BME280;29281;50.356;30.894;2023-01-15T09:26:24;100692.58;;;1.16;100.00
43681;BME280;29281;50.356;30.894;2023-01-15T09:27:26;100698.44;;;1.27;100.00
43681;BME280;29281;50.356;30.894;2023-01-15T09:28:32;100691.38;;;1.30;100.00
43681;BME280;29281;50.356;30.894;2023-01-15T09:29:36;100696.14;;;1.52;100.00
43681;BME280;29281;50.356;30.894;2023-01-15T09:30:40;100696.88;;;1.57;100.00
43681;BME280;29281;50.356;30.894;2023-01-15T09:31:43;100697.73;;;1.20;100.00
43681;BME280;29281;50.356;30.894;2023-01-15T09:32:47;100689.08;;;1.17;100.00
43681;BME280;29281;50.356;30.894;2023-01-15T09:33:51;100689.62;;;1.31;100.00
43681;BME280;29281;50.356;30.894;2023-01-15T09:34:53;100687.47;;;1.50;100.00
43681;BME280;29281;50.356;30.894;2023-01-15T09:35:57;100682.23;;;1.50;100.00
43681;BME280;29281;50.356;30.894;2023-01-15T09:37:01;100682.58;;;1.34;100.00
43681;BME280;29281;50.356;30.894;2023-01-15T09:38:06;100674.58;;;1.40;100.00
43681;BME280;29281;50.356;30.894;2023-01-15T09:39:12;100678.02;;;1.43;100.00
43681;BME280;29281;50.356;30.894;2023-01-15T09:40:50;100681.75;;;1.32;100.00
43681;BME280;29281;50.356;30.894;2023-01-15T09:41:31;100675.81;;;1.24;100.00
43681;BME280;29281;50.356;30.894;2023-01-15T09:42:55;100683.88;;;1.15;100.00
43681;BME280;29281;50.356;30.894;2023-01-15T09:44:05;100682.77;;;1.25;100.00
43681;BME280;29281;50.356;30.894;2023-01-15T09:45:25;100674.70;;;1.36;100.00
43681;BME280;29281;50.356;30.894;2023-01-15T09:46:34;100675.11;;;1.55;100.00
43681;BME280;29281;50.356;30.894;2023-01-15T09:50:23;100666.63;;;1.45;100.00
43681;BME280;29281;50.356;30.894;2023-01-15T09:55:21;100657.08;;;1.43;100.00
43681;BME280;29281;50.356;30.894;2023-01-15T09:56:25;100648.08;;;1.54;100.00
43681;BME280;29281;50.356;30.894;2023-01-15T09:57:30;100651.88;;;1.41;100.00
43681;BME280;29281;50.356;30.894;2023-01-15T09:58:36;100650.89;;;1.47;100.00
43681;BME280;29281;50.356;30.894;2023-01-15T09:59:42;100653.21;;;1.59;100.00
43681;BME280;29281;50.356;30.894;2023-01-15T10:00:48;100651.38;;;1.62;100.00
43681;BME280;29281;50.356;30.894;2023-01-15T10:01:51;100649.42;;;1.70;100.00
43681;BME280;29281;50.356;30.894;2023-01-15T10:02:57;100651.59;;;1.53;100.00
43681;BME280;29281;50.356;30.894;2023-01-15T10:04:04;100651.28;;;1.67;100.00
43681;BME280;29281;50.356;30.894;2023-01-15T10:05:09;100651.05;;;1.76;100.00
43681;BME280;29281;50.356;30.894;2023-01-15T10:06:14;100646.70;;;1.75;100.00
43681;BME280;29281;50.356;30.894;2023-01-15T10:07:19;100644.22;;;1.69;100.00
43681;BME280;29281;50.356;30.894;2023-01-15T10:08:23;100647.80;;;1.66;100.00
43681;BME280;29281;50.356;30.894;2023-01-15T10:09:33;100648.84;;;1.59;100.00
43681;BME280;29281;50.356;30.894;2023-01-15T10:10:53;100642.36;;;1.74;100.00
43681;BME280;29281;50.356;30.894;2023-01-15T10:11:55;100638.88;;;1.73;100.00
43681;BME280;29281;50.356;30.894;2023-01-15T10:14:31;100634.75;;;1.65;100.00
43681;BME280;29281;50.356;30.894;2023-01-15T10:15:43;100622.00;;;1.51;100.00
43681;BME280;29281;50.356;30.894;2023-01-15T10:16:46;100623.03;;;1.44;100.00
43681;BME280;29281;50.356;30.894;2023-01-15T10:17:50;100627.70;;;1.31;100.00
43681;BME280;29281;50.356;30.894;2023-01-15T10:18:55;100626.87;;;1.29;100.00
43681;BME280;29281;50.356;30.894;2023-01-15T10:20:00;100627.73;;;1.30;100.00
43681;BME280;29281;50.356;30.894;2023-01-15T10:21:16;100620.87;;;1.24;100.00
43681;BME280;29281;50.356;30.894;2023-01-15T10:22:21;100614.35;;;1.42;100.00
43681;BME280;29281;50.356;30.894;2023-01-15T10:23:28;100614.38;;;1.40;100.00
43681;BME280;29281;50.356;30.894;2023-01-15T10:24:42;100607.36;;;1.43;100.00
43681;BME280;29281;50.356;30.894;2023-01-15T10:25:47;100602.98;;;1.43;100.00
43681;BME280;29281;50.356;30.894;2023-01-15T10:26:54;100604.77;;;1.41;100.00
43681;BME280;29281;50.356;30.894;2023-01-15T10:28:00;100600.34;;;1.45;100.00
43681;BME280;29281;50.356;30.894;2023-01-15T10:29:16;100599.44;;;1.46;100.00
43681;BME280;29281;50.356;30.894;2023-01-15T10:30:27;100592.25;;;1.54;100.00
43681;BME280;29281;50.356;30.894;2023-01-15T10:31:41;100597.72;;;1.45;100.00
43681;BME280;29281;50.356;30.894;2023-01-15T10:32:45;100583.31;;;1.27;100.00
43681;BME280;29281;50.356;30.894;2023-01-15T10:37:57;100573.58;;;1.33;100.00
43681;BME280;29281;50.356;30.894;2023-01-15T10:39:03;100580.63;;;1.30;100.00
43681;BME280;29281;50.356;30.894;2023-01-15T10:40:13;100582.98;;;1.40;100.00
43681;BME280;29281;50.356;30.894;2023-01-15T10:45:11;100584.14;;;1.29;100.00
43681;BME280;29281;50.356;30.894;2023-01-15T10:46:18;100576.81;;;1.43;100.00
43681;BME280;29281;50.356;30.894;2023-01-15T10:47:21;100569.30;;;1.29;100.00
43681;BME280;29281;50.356;30.894;2023-01-15T10:48:25;100571.89;;;1.31;100.00
43681;BME280;29281;50.356;30.894;2023-01-15T10:49:29;100576.89;;;1.40;100.00
43681;BME280;29281;50.356;30.894;2023-01-15T10:50:32;100572.23;;;1.53;100.00
43681;BME280;29281;50.356;30.894;2023-01-15T10:53:04;100571.02;;;1.66;100.00
43681;BME280;29281;50.356;30.894;2023-01-15T10:55:35;100578.19;;;1.58;100.00
43681;BME280;29281;50.356;30.894;2023-01-15T10:56:50;100574.68;;;1.59;100.00
43681;BME280;29281;50.356;30.894;2023-01-15T10:57:54;100581.28;;;1.73;100.00
43681;BME280;29281;50.356;30.894;2023-01-15T11:00:07;100575.54;;;1.59;100.00
43681;BME280;29281;50.356;30.894;2023-01-15T11:01:14;100581.16;;;1.44;100.00
43681;BME280;29281;50.356;30.894;2023-01-15T11:02:23;100575.30;;;1.34;100.00
43681;BME280;29281;50.356;30.894;2023-01-15T11:03:36;100583.73;;;1.46;100.00
43681;BME280;29281;50.356;30.894;2023-01-15T11:04:37;100582.05;;;1.43;100.00
43681;BME280;29281;50.356;30.894;2023-01-15T11:05:41;100576.39;;;1.24;100.00
43681;BME280;29281;50.356;30.894;2023-01-15T11:06:47;100576.33;;;1.27;100.00
43681;BME280;29281;50.356;30.894;2023-01-15T11:07:51;100573.34;;;1.43;100.00
43681;BME280;29281;50.356;30.894;2023-01-15T11:08:57;100577.41;;;1.54;100.00
43681;BME280;29281;50.356;30.894;2023-01-15T11:10:04;100572.09;;;1.57;100.00
43681;BME280;29281;50.356;30.894;2023-01-15T11:11:34;100581.19;;;1.43;100.00
43681;BME280;29281;50.356;30.894;2023-01-15T11:12:28;100578.41;;;1.50;100.00
43681;BME280;29281;50.356;30.894;2023-01-15T11:13:51;100571.23;;;1.57;100.00
43681;BME280;29281;50.356;30.894;2023-01-15T11:15:14;100568.97;;;1.43;100.00
43681;BME280;29281;50.356;30.894;2023-01-15T11:16:35;100561.08;;;1.45;100.00
43681;BME280;29281;50.356;30.894;2023-01-15T11:17:56;100561.39;;;1.32;100.00
43681;BME280;29281;50.356;30.894;2023-01-15T11:19:28;100562.98;;;1.38;100.00
43681;BME280;29281;50.356;30.894;2023-01-15T11:20:45;100561.22;;;1.38;100.00
43681;BME280;29281;50.356;30.894;2023-01-15T11:21:50;100557.81;;;1.36;100.00
43681;BME280;29281;50.356;30.894;2023-01-15T11:22:55;100553.23;;;1.45;100.00
43681;BME280;29281;50.356;30.894;2023-01-15T11:23:59;100554.30;;;1.37;100.00
43681;BME280;29281;50.356;30.894;2023-01-15T11:25:02;100553.91;;;1.17;100.00
43681;BME280;29281;50.356;30.894;2023-01-15T11:26:05;100548.64;;;1.19;100.00
43681;BME280;29281;50.356;30.894;2023-01-15T11:27:12;100544.00;;;1.30;100.00
43681;BME280;29281;50.356;30.894;2023-01-15T11:28:15;100536.95;;;1.33;100.00
43681;BME280;29281;50.356;30.894;2023-01-15T11:29:27;100537.59;;;1.41;100.00
43681;BME280;29281;50.356;30.894;2023-01-15T11:31:40;100527.84;;;1.48;100.00
43681;BME280;29281;50.356;30.894;2023-01-15T11:32:43;100539.52;;;1.35;100.00
43681;BME280;29281;50.356;30.894;2023-01-15T11:33:56;100541.94;;;1.43;100.00
43681;BME280;29281;50.356;30.894;2023-01-15T11:34:59;100538.82;;;1.62;100.00
43681;BME280;29281;50.356;30.894;2023-01-15T11:36:18;100542.87;;;1.74;100.00
43681;BME280;29281;50.356;30.894;2023-01-15T11:37:08;100533.33;;;1.71;100.00
43681;BME280;29281;50.356;30.894;2023-01-15T11:38:12;100532.72;;;1.62;100.00
43681;BME280;29281;50.356;30.894;2023-01-15T11:39:22;100528.87;;;1.75;100.00
43681;BME280;29281;50.356;30.894;2023-01-15T11:40:33;100526.11;;;1.81;100.00
43681;BME280;29281;50.356;30.894;2023-01-15T11:41:34;100528.09;;;1.71;100.00
43681;BME280;29281;50.356;30.894;2023-01-15T11:42:56;100522.11;;;1.68;100.00
43681;BME280;29281;50.356;30.894;2023-01-15T11:44:17;100522.25;;;1.62;100.00
43681;BME280;29281;50.356;30.894;2023-01-15T11:45:46;100518.09;;;1.53;100.00
43681;BME280;29281;50.356;30.894;2023-01-15T11:47:16;100515.66;;;1.47;100.00
43681;BME280;29281;50.356;30.894;2023-01-15T11:48:42;100520.45;;;1.64;100.00
43681;BME280;29281;50.356;30.894;2023-01-15T11:49:57;100513.91;;;1.80;100.00
43681;BME280;29281;50.356;30.894;2023-01-15T11:51:19;100513.73;;;1.86;100.00
43681;BME280;29281;50.356;30.894;2023-01-15T11:52:24;100514.63;;;1.85;100.00
43681;BME280;29281;50.356;30.894;2023-01-15T11:53:31;100512.31;;;1.74;100.00
43681;BME280;29281;50.356;30.894;2023-01-15T11:54:36;100509.27;;;1.57;100.00
43681;BME280;29281;50.356;30.894;2023-01-15T11:55:39;100510.60;;;1.39;100.00
43681;BME280;29281;50.356;30.894;2023-01-15T11:56:47;100506.13;;;1.45;100.00
43681;BME280;29281;50.356;30.894;2023-01-15T11:57:51;100513.90;;;1.48;100.00
43681;BME280;29281;50.356;30.894;2023-01-15T11:59:00;100508.88;;;1.38;100.00
43681;BME280;29281;50.356;30.894;2023-01-15T12:00:03;100506.16;;;1.43;100.00
43681;BME280;29281;50.356;30.894;2023-01-15T12:01:11;100504.66;;;1.34;100.00
43681;BME280;29281;50.356;30.894;2023-01-15T12:02:24;100508.13;;;1.35;100.00
43681;BME280;29281;50.356;30.894;2023-01-15T12:03:26;100514.30;;;1.32;100.00
43681;BME280;29281;50.356;30.894;2023-01-15T12:04:33;100520.52;;;1.27;100.00
43681;BME280;29281;50.356;30.894;2023-01-15T12:05:36;100512.84;;;1.21;100.00
43681;BME280;29281;50.356;30.894;2023-01-15T12:06:43;100516.91;;;1.32;100.00
43681;BME280;29281;50.356;30.894;2023-01-15T12:07:47;100522.93;;;1.36;100.00
43681;BME280;29281;50.356;30.894;2023-01-15T12:10:21;100516.52;;;1.48;100.00
43681;BME280;29281;50.356;30.894;2023-01-15T12:13:02;100520.03;;;1.47;100.00
43681;BME280;29281;50.356;30.894;2023-01-15T12:15:37;100515.47;;;1.21;100.00
43681;BME280;29281;50.356;30.894;2023-01-15T12:16:47;100521.28;;;1.32;100.00
43681;BME280;29281;50.356;30.894;2023-01-15T12:17:59;100517.95;;;1.25;100.00
43681;BME280;29281;50.356;30.894;2023-01-15T12:19:05;100523.48;;;1.13;100.00
43681;BME280;29281;50.356;30.894;2023-01-15T12:26:41;100528.41;;;1.25;100.00
43681;BME280;29281;50.356;30.894;2023-01-15T12:27:48;100524.20;;;1.20;100.00
43681;BME280;29281;50.356;30.894;2023-01-15T12:30:02;100527.72;;;1.19;100.00
43681;BME280;29281;50.356;30.894;2023-01-15T12:31:19;100529.81;;;1.04;100.00
43681;BME280;29281;50.356;30.894;2023-01-15T12:32:23;100530.67;;;1.05;100.00
43681;BME280;29281;50.356;30.894;2023-01-15T12:35:15;100527.09;;;1.08;100.00
43681;BME280;29281;50.356;30.894;2023-01-15T12:35:41;100528.84;;;1.07;100.00
43681;BME280;29281;50.356;30.894;2023-01-15T12:36:53;100524.70;;;0.98;100.00
43681;BME280;29281;50.356;30.894;2023-01-15T12:38:02;100525.70;;;0.93;100.00
43681;BME280;29281;50.356;30.894;2023-01-15T12:39:06;100523.02;;;0.96;100.00
43681;BME280;29281;50.356;30.894;2023-01-15T12:41:36;100526.23;;;1.07;100.00
43681;BME280;29281;50.356;30.894;2023-01-15T12:42:53;100524.11;;;1.23;100.00
43681;BME280;29281;50.356;30.894;2023-01-15T12:44:17;100526.00;;;1.18;100.00
43681;BME280;29281;50.356;30.894;2023-01-15T12:45:41;100529.51;;;1.17;100.00
43681;BME280;29281;50.356;30.894;2023-01-15T12:46:45;100534.67;;;1.20;100.00
43681;BME280;29281;50.356;30.894;2023-01-15T12:47:51;100529.20;;;1.29;100.00
43681;BME280;29281;50.356;30.894;2023-01-15T12:49:05;100534.44;;;1.29;100.00
43681;BME280;29281;50.356;30.894;2023-01-15T12:51:31;100534.30;;;1.35;100.00
43681;BME280;29281;50.356;30.894;2023-01-15T12:52:34;100527.20;;;1.38;100.00
43681;BME280;29281;50.356;30.894;2023-01-15T12:54:46;100531.33;;;1.49;100.00
43681;BME280;29281;50.356;30.894;2023-01-15T12:55:55;100527.78;;;1.51;100.00
43681;BME280;29281;50.356;30.894;2023-01-15T12:57:02;100522.54;;;1.51;100.00
43681;BME280;29281;50.356;30.894;2023-01-15T13:01:36;100520.92;;;1.46;100.00
43681;BME280;29281;50.356;30.894;2023-01-15T13:02:49;100534.36;;;1.32;100.00
43681;BME280;29281;50.356;30.894;2023-01-15T13:04:52;100524.24;;;1.18;100.00
43681;BME280;29281;50.356;30.894;2023-01-15T13:05:59;100520.00;;;1.13;100.00
43681;BME280;29281;50.356;30.894;2023-01-15T13:07:17;100519.01;;;1.18;100.00
43681;BME280;29281;50.356;30.894;2023-01-15T13:09:44;100522.45;;;1.20;100.00
43681;BME280;29281;50.356;30.894;2023-01-15T13:10:48;100517.49;;;1.08;100.00
43681;BME280;29281;50.356;30.894;2023-01-15T13:11:52;100518.35;;;1.09;100.00
43681;BME280;29281;50.356;30.894;2023-01-15T13:12:58;100524.61;;;1.03;100.00
43681;BME280;29281;50.356;30.894;2023-01-15T13:14:02;100522.13;;;0.97;100.00
43681;BME280;29281;50.356;30.894;2023-01-15T13:15:06;100528.28;;;0.94;100.00
43681;BME280;29281;50.356;30.894;2023-01-15T13:16:23;100528.41;;;0.90;100.00
43681;BME280;29281;50.356;30.894;2023-01-15T13:20:03;100525.92;;;0.84;100.00
43681;BME280;29281;50.356;30.894;2023-01-15T13:20:53;100532.55;;;0.98;100.00
43681;BME280;29281;50.356;30.894;2023-01-15T13:22:02;100512.76;;;0.88;100.00
43681;BME280;29281;50.356;30.894;2023-01-15T13:27:16;100501.13;;;0.63;100.00
43681;BME280;29281;50.356;30.894;2023-01-15T13:29:32;100491.75;;;0.54;100.00
43681;BME280;29281;50.356;30.894;2023-01-15T13:30:42;100490.98;;;0.49;100.00
43681;BME280;29281;50.356;30.894;2023-01-15T13:31:57;100484.58;;;0.62;100.00